MOL Explorer — 3EKT8 — position and weather

sailwx.info

Track history (hours):
 
Tides and Currents Weather Stations Pressure Air Temp Water Temp Dewpoint Dewpoint Depression Visibility Wind Speed Wind Dir Waves Ship Positions

MOL Explorer

Last reported at 2017-Mar-19 18:09 UTC. Time now 2017-Mar-23 08:26 UTC.
Position N 01°54' E 102°21'.

Length 293 m; draft 13 m.

Type: Ship (hazmat cat A). MMSI: 372827000.

Date/timePositionNaut miles runAvg speedWind from/ knotsBaromVisibWave heightAir tempDewpointWater temp
2017-Mar-19 18:09N 01°54' E 102°21'1016.3
2017-Mar-19 17:33N 01°49' E 102°30'1816.5
2017-Mar-19 16:27N 01°41' E 102°47'5318.0
2017-Mar-19 13:30N 01°12' E 103°31'1616.6
2017-Mar-19 12:33N 01°10' E 103°46'7 7.4
2017-Mar-19 11:34N 01°15' E 103°51'1 0.6
2017-Mar-19 10:30N 01°16' E 103°50'0 0.0
2017-Mar-19 09:30N 01°16' E 103°50'0 0.0
2017-Mar-19 08:30N 01°16' E 103°50'0 0.0
2017-Mar-19 07:33N 01°16' E 103°50'0 0.0
2017-Mar-19 06:33N 01°16' E 103°50'0 0.0
2017-Mar-19 05:30N 01°16' E 103°50'0 0.0
2017-Mar-19 04:30N 01°16' E 103°50'0 0.0
2017-Mar-19 03:30N 01°16' E 103°50'0 0.0
2017-Mar-19 02:30N 01°16' E 103°50'0 0.0
2017-Mar-19 01:30N 01°16' E 103°50'0 0.0
2017-Mar-19 00:30N 01°16' E 103°50'0 0.0
2017-Mar-18 23:33N 01°16' E 103°50'0 0.0
2017-Mar-18 22:33N 01°16' E 103°50'0 0.0
2017-Mar-18 21:30N 01°16' E 103°50'0 0.0
2017-Mar-18 20:30N 01°16' E 103°50'0 0.0
2017-Mar-18 19:33N 01°16' E 103°50'0 0.0
2017-Mar-18 18:30N 01°16' E 103°50'1 0.6
2017-Mar-18 17:34N 01°16' E 103°51'5 4.7
2017-Mar-18 16:33N 01°14' E 103°55'10 9.6
2017-Mar-18 15:34N 01°16' E 104°05'  
2017-Mar-10 19:15N 34°42' E 139°31'1318.9
2017-Mar-10 18:33N 34°55' E 139°36'1717.3
2017-Mar-10 17:33N 35°10' E 139°45'1111.3
2017-Mar-10 16:33N 35°21' E 139°42'1313.1
2017-Mar-10 15:33N 35°32' E 139°51'6 5.6
2017-Mar-10 14:34N 35°36' E 139°46'0 0.0
2017-Mar-10 13:31N 35°36' E 139°46'0 0.0
2017-Mar-10 12:28N 35°36' E 139°46'0 0.0
2017-Mar-10 11:31N 35°36' E 139°46'0 0.0
2017-Mar-10 10:31N 35°36' E 139°46'0 0.0
2017-Mar-10 09:19N 35°36' E 139°46'0 0.0
2017-Mar-10 08:31N 35°36' E 139°46'0 0.0
2017-Mar-10 07:31N 35°36' E 139°46'0 0.0
2017-Mar-10 06:31N 35°36' E 139°46'0 0.0
2017-Mar-10 05:28N 35°36' E 139°46'0 0.0
2017-Mar-10 04:22N 35°36' E 139°46'0 0.0
2017-Mar-10 03:31N 35°36' E 139°46'0 0.0
2017-Mar-10 02:31N 35°36' E 139°46'0 0.0
2017-Mar-10 01:31N 35°36' E 139°46'0 0.0
2017-Mar-10 00:31N 35°36' E 139°46'0 0.0
2017-Mar-09 23:31N 35°36' E 139°46'0 0.0
2017-Mar-09 22:32N 35°36' E 139°46'5 5.6
2017-Mar-09 21:34N 35°33' E 139°51'6 6.4
2017-Mar-09 20:34N 35°27' E 139°48'6 5.5
2017-Mar-09 19:31N 35°26' E 139°41'0 0.0
2017-Mar-09 18:31N 35°26' E 139°41'  
Track history (hours):
 
Tides and Currents Weather Stations Pressure Air Temp Water Temp Dewpoint Dewpoint Depression Visibility Wind Speed Wind Dir Waves Ship Positions

MOL Explorer

Last reported at 2017-Mar-19 18:09 UTC. Time now 2017-Mar-23 08:26 UTC.
Position N 01°54' E 102°21'.

Length 293 m; draft 13 m.

Type: Ship (hazmat cat A). MMSI: 372827000.

Date/timePositionNaut miles runAvg speedWind from/ knotsBaromVisibWave heightAir tempDewpointWater temp
2017-Mar-19 18:09N 01°54' E 102°21'1016.3
2017-Mar-19 17:33N 01°49' E 102°30'1816.5
2017-Mar-19 16:27N 01°41' E 102°47'5318.0
2017-Mar-19 13:30N 01°12' E 103°31'1616.6
2017-Mar-19 12:33N 01°10' E 103°46'7 7.4
2017-Mar-19 11:34N 01°15' E 103°51'1 0.6
2017-Mar-19 10:30N 01°16' E 103°50'0 0.0
2017-Mar-19 09:30N 01°16' E 103°50'0 0.0
2017-Mar-19 08:30N 01°16' E 103°50'0 0.0
2017-Mar-19 07:33N 01°16' E 103°50'0 0.0
2017-Mar-19 06:33N 01°16' E 103°50'0 0.0
2017-Mar-19 05:30N 01°16' E 103°50'0 0.0
2017-Mar-19 04:30N 01°16' E 103°50'0 0.0
2017-Mar-19 03:30N 01°16' E 103°50'0 0.0
2017-Mar-19 02:30N 01°16' E 103°50'0 0.0
2017-Mar-19 01:30N 01°16' E 103°50'0 0.0
2017-Mar-19 00:30N 01°16' E 103°50'0 0.0
2017-Mar-18 23:33N 01°16' E 103°50'0 0.0
2017-Mar-18 22:33N 01°16' E 103°50'0 0.0
2017-Mar-18 21:30N 01°16' E 103°50'0 0.0
2017-Mar-18 20:30N 01°16' E 103°50'0 0.0
2017-Mar-18 19:33N 01°16' E 103°50'0 0.0
2017-Mar-18 18:30N 01°16' E 103°50'1 0.6
2017-Mar-18 17:34N 01°16' E 103°51'5 4.7
2017-Mar-18 16:33N 01°14' E 103°55'10 9.6
2017-Mar-18 15:34N 01°16' E 104°05'  
2017-Mar-10 19:15N 34°42' E 139°31'1318.9
2017-Mar-10 18:33N 34°55' E 139°36'1717.3
2017-Mar-10 17:33N 35°10' E 139°45'1111.3
2017-Mar-10 16:33N 35°21' E 139°42'1313.1
2017-Mar-10 15:33N 35°32' E 139°51'6 5.6
2017-Mar-10 14:34N 35°36' E 139°46'0 0.0
2017-Mar-10 13:31N 35°36' E 139°46'0 0.0
2017-Mar-10 12:28N 35°36' E 139°46'0 0.0
2017-Mar-10 11:31N 35°36' E 139°46'0 0.0
2017-Mar-10 10:31N 35°36' E 139°46'0 0.0
2017-Mar-10 09:19N 35°36' E 139°46'0 0.0
2017-Mar-10 08:31N 35°36' E 139°46'0 0.0
2017-Mar-10 07:31N 35°36' E 139°46'0 0.0
2017-Mar-10 06:31N 35°36' E 139°46'0 0.0
2017-Mar-10 05:28N 35°36' E 139°46'0 0.0
2017-Mar-10 04:22N 35°36' E 139°46'0 0.0
2017-Mar-10 03:31N 35°36' E 139°46'0 0.0
2017-Mar-10 02:31N 35°36' E 139°46'0 0.0
2017-Mar-10 01:31N 35°36' E 139°46'0 0.0
2017-Mar-10 00:31N 35°36' E 139°46'0 0.0
2017-Mar-09 23:31N 35°36' E 139°46'0 0.0
2017-Mar-09 22:32N 35°36' E 139°46'5 5.6
2017-Mar-09 21:34N 35°33' E 139°51'6 6.4
2017-Mar-09 20:34N 35°27' E 139°48'6 5.5
2017-Mar-09 19:31N 35°26' E 139°41'0 0.0
2017-Mar-09 18:31N 35°26' E 139°41'  

Dump ship's entire track history